• Join FlightAware (Why Join?)
  • Login
  • US Flag 
01:43PM EST


 

Airport Tracker/Info


-or-


 

Live Flight TrackerFlight Track Log ✈ EJA122 ✈ 10-Jul-2013 ✈ KLEB - KALB

Flight Track Log - Related Links

Times and Time Zones

All times are in EDT time to prevent confusion due to time zone crossing. See the EJA122 flight status page for this flight to view local times or setup timezone preferences in your user account.

Time Position Orientation Groundspeed Altitude Reporting Facility
EDT Latitude Longitude Course Direction KTS MPH feet Rate Location/Type
08:52AM 43.6778 -72.2736 230° Southwest 327 376 4,000  Level Boston Center
08:53AM 43.6653 -72.3483 257° West 195 224 8,400 3,500 Climbing Boston Center
08:54AM 43.6175 -72.4200 227° Southwest 172 198 11,000 1,300 Climbing Boston Center
08:55AM 43.2758 -72.8584 230° Southwest  Level FlightAware Approximate
08:55AM 43.5550 -72.5175 229° Southwest 252 290 11,000  Level Boston Center
08:56AM 43.4881 -72.6175 227° Southwest 314 361 11,000  Level Boston Center
08:57AM 43.4108 -72.7286 226° Southwest 340 391 11,000  Level Boston Center
08:58AM 43.3439 -72.8311 228° Southwest 354 407 11,000  Level Boston Center
08:59AM 43.2619 -72.9447 225° Southwest 365 420 11,000  Level Boston Center
09:00AM 43.1992 -73.0439 229° Southwest 350 403 11,000  Level Boston Center
09:01AM 43.1381 -73.1286 225° Southwest 336 387 11,000 -313 Level Boston Center
09:02AM 43.0875 -73.2333 237° Southwest 337 388 10,400 -1,150 Descending Boston Center
09:03AM 43.0575 -73.3408 249° West 310 357 8,700 -1,672 Descending Boston Center
09:04AM 43.0339 -73.4342 251° West 239 275 7,000 -1,770 Descending Boston Center
09:05AM 43.0100 -73.5189 249° West 236 272 5,100 -992 Descending Boston Center
09:06AM 42.9864 -73.6008 249° West 224 258 5,000 -787 Descending Boston Center
09:07AM 42.9625 -73.6883 250° West 250 288 3,500 -1,488 Descending Boston Center
09:08AM 42.9408 -73.7675 250° West 230 265 2,000 -744 Descending Boston Center
09:09AM 42.9028 -73.8064 217° Southwest 153 176 2,000  Level Boston Center
09:10AM 42.8608 -73.8308 203° Southwest 162 186 2,000 -298 Level Boston Center
09:11AM 42.8172 -73.8100 161° South 136 157 1,400 -699 Descending Boston Center
09:12AM 42.7819 -73.8092 179° South 123 142 800 -590 Descending Boston Center
09:14AM 42.7491 -73.8020 119° Southeast  Level Estimated
09:21AM 42.7491 -73.8020 North  Level Estimated
09:22AM 42.7491 -73.8020 North  Level Estimated
09:23AM 42.7491 -73.8020 North  Level Estimated